Pipestone, MN (56164)

10:25 PM CDT on August 22, 2014 (GMT -0500)
Pipestone Municipal | Change Station
CLOSE
Current Station
Airport
Location: Pipestone,
Elevation: 1736 ft
Nearby Weather Stations

Elev 1736 ft 43.98 °N, 96.30 °W | Updated 11 minutes ago

Clear
Clear
73 °F
Feels Like 73 °F
N
7
Wind Variable Wind from ESE

Today
High -- | Low -- °F
--% Chance of Precip.
Yesterday
High -- | Low -- °F
Precip. -- in
6:37 AM 8:18 PM
Waning Crescent, 5% visible
Pressure 30.02 in
Visibility 10.0 miles
Clouds Clear
Dew Point 70 °F
Humidity 88%
Rainfall 0.00 in
Snow Depth Not available.
UV 0 out of 12
Pollen 9.30 out of 12
Air Quality Not available.
Flu Activity Not available.
METAR KPQN 230314Z AUTO 11006KT 10SM CLR 23/21 A3002 RMK AO2

More Conditions Fewer Conditions

Pressure 30.02 in
Visibility 10.0 miles
Clouds Clear
Dew Point 70 °F
Humidity 88%
Rainfall 0.00 in
Snow Depth Not available.
UV 0 out of 12
Pollen 9.30 out of 12
Air Quality Not available.
Flu Activity Not available.
METAR KPQN 230314Z AUTO 11006KT 10SM CLR 23/21 A3002 RMK AO2

More Conditions Fewer Conditions

10-Day Weather Forecast

Almanac

Astronomy

Aug. 22, 2014 Rise Set
Actual Time 6:37 AM CDT 8:18 PM CDT
Civil Twilight 6:06 AM CDT 8:48 PM CDT
Nautical Twilight 5:29 AM CDT 9:25 PM CDT
Astronomical Twilight 4:49 AM CDT 10:05 PM CDT
Moon 3:58 AM CDT (8/22) 6:29 PM CDT (8/22)
Length of Visible Light 14h 42m
Length of Day
13h 41m
Tomorrow will be 2m 48s shorter.
Waning Crescent, 5% of the Moon is Illuminated
Today
Waning Crescent
Aug 25
New
Sep 2
First Quarter
Sep 8
Full
Sep 15
Last Quarter

Today's Extremes

State Highs State Lows

Community

WunderPhotos

Upload Photos

1,746,345 photos uploaded!

WunderBlogs® & News

Nearby

Snow Depth

Station Depth Elevation
No new snow has been reported.

Earthquake Activity

City Distance Mag. Time & Date
No recent earthquake activity has been reported nearby.
Minimum magnitude displayed is 2.5.

Coastal Water Temperatures

Place Temperature
No Stations Reporting

Nearby Weather Stations